Time;durP1;ratioP1;P1;durP2;ratioP2;P2;SDS_P1;SDS_P2;PMS_P1;PMS_P2;Temp;Humidity;BMP_temperature;BMP_pressure;BME280_temperature;BME280_humidity;BME280_pressure;Samples;Min_cycle;Max_cycle;Signal;HPM_P1;HPM_P2
2022/03/04 00:01:44;;;;;;;1.15;1.10;;;;;;;3.66;44.67;99628.03;4332767;33;33609;-70
2022/03/04 00:04:13;;;;;;;34.53;17.77;;;;;;;3.92;43.63;99620.19;4319131;33;34718;-69
2022/03/04 00:06:42;;;;;;;33.08;17.77;;;;;;;3.57;44.41;99628.47;4332078;33;34294;-70
2022/03/04 00:09:09;;;;;;;32.63;17.48;;;;;;;3.14;44.40;99632.31;4332575;33;33972;-70
2022/03/04 00:11:37;;;;;;;2.95;1.37;;;;;;;3.49;44.26;99629.47;4332533;33;34377;-69
2022/03/04 00:14:04;;;;;;;1.67;1.58;;;;;;;4.04;42.16;99626.53;4332718;33;34332;-65
2022/03/04 00:16:32;;;;;;;32.42;16.73;;;;;;;2.81;44.11;99633.06;4331884;33;34317;-65
2022/03/04 00:19:12;;;;;;;1.77;1.67;;;;;;;2.55;44.88;99633.78;4332370;33;34148;-66
2022/03/04 00:21:42;;;;;;;29.20;15.65;;;;;;;3.36;44.53;99634.84;4332600;33;34396;-65
2022/03/04 00:24:11;;;;;;;28.92;15.07;;;;;;;3.47;44.73;99637.72;4332356;33;34116;-64
2022/03/04 00:26:39;;;;;;;33.10;16.23;;;;;;;3.82;42.96;99637.53;4331874;33;33870;-68
2022/03/04 00:29:07;;;;;;;29.52;15.27;;;;;;;3.59;44.33;99634.44;4332580;33;35028;-65
2022/03/04 00:31:35;;;;;;;31.33;16.23;;;;;;;3.78;41.94;99639.00;4332353;33;34765;-64
2022/03/04 00:34:06;;;;;;;29.55;15.38;;;;;;;3.27;43.67;99631.53;4332645;33;34588;-65
2022/03/04 00:36:38;;;;;;;32.38;15.88;;;;;;;3.42;43.94;99620.59;4331566;33;34873;-65
2022/03/04 00:39:08;;;;;;;28.67;14.87;;;;;;;3.85;43.07;99618.31;4332342;33;33713;-66
2022/03/04 00:41:35;;;;;;;29.52;15.95;;;;;;;3.76;44.27;99624.09;4332472;33;33197;-64
2022/03/04 00:44:03;;;;;;;29.83;16.62;;;;;;;3.72;43.24;99617.53;4332158;33;34762;-65
2022/03/04 00:46:31;;;;;;;30.20;15.85;;;;;;;3.77;43.07;99623.09;4331400;33;34420;-66
2022/03/04 00:48:58;;;;;;;31.30;16.90;;;;;;;3.63;42.83;99620.41;4332348;33;34735;-68
2022/03/04 00:51:26;;;;;;;26.37;15.15;;;;;;;3.94;42.67;99616.25;4331960;33;33338;-66
2022/03/04 00:53:53;;;;;;;2.35;2.15;;;;;;;3.86;42.95;99611.09;4332271;33;33644;-65
2022/03/04 00:56:21;;;;;;;28.60;15.70;;;;;;;4.25;43.85;99612.87;4331984;33;34259;-66
2022/03/04 00:58:48;;;;;;;29.75;16.52;;;;;;;4.14;43.87;99620.75;4332136;33;33643;-68
2022/03/04 01:01:16;;;;;;;32.45;15.80;;;;;;;4.02;43.78;99617.91;4332222;33;33607;-66
2022/03/04 01:03:44;;;;;;;34.40;16.58;;;;;;;3.87;42.63;99615.44;4331872;33;33793;-65
2022/03/04 01:06:12;;;;;;;29.52;15.80;;;;;;;3.89;42.57;99613.37;4331671;33;34261;-66
2022/03/04 01:08:39;;;;;;;30.42;15.38;;;;;;;3.52;43.23;99613.00;4331990;33;34034;-68
2022/03/04 01:11:07;;;;;;;33.70;16.40;;;;;;;4.13;42.56;99608.38;4332468;33;33616;-69
2022/03/04 01:13:34;;;;;;;31.08;15.80;;;;;;;3.65;43.33;99614.81;4332229;33;33908;-65
2022/03/04 01:16:02;;;;;;;26.23;14.63;;;;;;;4.18;42.66;99608.56;4331771;33;34017;-65
2022/03/04 01:18:30;;;;;;;2.08;0.98;;;;;;;4.07;43.41;99610.03;4331594;33;34902;-66
2022/03/04 01:20:58;;;;;;;32.65;16.15;;;;;;;4.54;42.26;99605.34;4331800;33;34313;-66
2022/03/04 01:23:26;;;;;;;26.15;14.65;;;;;;;4.37;42.87;99610.38;4332046;33;33716;-65
2022/03/04 01:25:54;;;;;;;30.58;15.95;;;;;;;4.28;43.29;99604.41;4331566;33;34781;-65
2022/03/04 01:28:21;;;;;;;25.90;15.13;;;;;;;4.18;43.28;99605.88;4331553;33;33630;-65
2022/03/04 01:30:49;;;;;;;27.58;15.00;;;;;;;4.14;43.79;99599.28;4331697;33;33594;-66
2022/03/04 01:33:17;;;;;;;27.02;14.52;;;;;;;4.66;43.55;99598.25;4331811;33;34769;-65
2022/03/04 01:35:44;;;;;;;28.83;15.45;;;;;;;4.33;44.45;99611.81;4331218;33;34220;-67
2022/03/04 01:38:12;;;;;;;30.52;15.43;;;;;;;4.05;45.23;99598.69;4331410;33;33552;-66
2022/03/04 01:40:39;;;;;;;28.02;15.55;;;;;;;3.66;46.11;99603.06;4331814;33;34365;-66
2022/03/04 01:43:07;;;;;;;27.77;15.35;;;;;;;4.71;43.16;99600.31;4331457;33;33728;-66
2022/03/04 01:45:35;;;;;;;3.45;3.12;;;;;;;3.98;44.46;99595.19;4331101;33;35099;-65
2022/03/04 01:48:02;;;;;;;26.42;14.57;;;;;;;4.54;43.73;99591.91;4331603;33;34713;-66
2022/03/04 01:50:30;;;;;;;29.02;15.68;;;;;;;4.06;45.05;99590.44;4331378;33;33659;-67
2022/03/04 01:52:58;;;;;;;2.05;1.35;;;;;;;4.14;45.38;99588.53;4331605;33;33533;-69
2022/03/04 01:55:25;;;;;;;29.63;14.43;;;;;;;4.38;44.51;99587.00;4331147;33;34302;-68
2022/03/04 01:57:52;;;;;;;29.63;16.20;;;;;;;4.42;44.55;99591.75;4331347;33;34726;-67
2022/03/04 02:00:21;;;;;;;24.83;13.13;;;;;;;3.39;47.45;99600.41;4333598;33;34119;-67
2022/03/04 02:02:50;;;;;;;28.42;15.05;;;;;;;3.65;47.62;99590.66;4333396;33;33598;-68
2022/03/04 02:05:18;;;;;;;27.13;14.52;;;;;;;3.80;47.24;99593.97;4332384;33;34927;-65
2022/03/04 02:07:45;;;;;;;25.05;13.40;;;;;;;3.93;48.10;99600.34;4333377;33;34892;-66
2022/03/04 02:10:13;;;;;;;23.92;13.02;;;;;;;4.02;48.19;99607.16;4333595;33;33409;-66
2022/03/04 02:12:40;;;;;;;25.27;14.57;;;;;;;3.84;48.50;99600.56;4333347;33;34040;-67
2022/03/04 02:15:08;;;;;;;25.42;14.63;;;;;;;3.97;48.78;99597.03;4332752;33;33829;-66
2022/03/04 02:17:36;;;;;;;24.67;14.10;;;;;;;4.42;47.24;99593.62;4333352;33;34744;-66
2022/03/04 02:20:05;;;;;;;26.37;13.73;;;;;;;3.62;50.87;99599.16;4333147;33;34385;-66
2022/03/04 02:22:32;;;;;;;22.77;13.82;;;;;;;3.55;53.78;99604.50;4333531;33;33942;-67
2022/03/04 02:25:00;;;;;;;24.75;14.15;;;;;;;3.69;53.38;99594.59;4332672;33;35004;-67
2022/03/04 02:27:28;;;;;;;24.17;14.45;;;;;;;3.30;55.28;99598.94;4332950;33;34748;-67
2022/03/04 02:29:56;;;;;;;30.25;15.35;;;;;;;3.85;54.50;99601.41;4333292;33;33076;-68
2022/03/04 02:32:23;;;;;;;27.20;15.50;;;;;;;3.90;54.85;99596.22;4333021;33;33685;-67
2022/03/04 02:34:51;;;;;;;26.98;15.15;;;;;;;3.81;55.54;99597.50;4332717;33;34108;-67
2022/03/04 02:37:18;;;;;;;30.60;16.50;;;;;;;3.96;55.29;99603.44;4333040;33;34501;-67
2022/03/04 02:39:46;;;;;;;27.52;14.90;;;;;;;3.63;56.67;99608.88;4332847;33;33593;-67
2022/03/04 02:42:14;;;;;;;28.52;16.27;;;;;;;3.39;57.53;99608.44;4332999;33;33856;-68
2022/03/04 02:44:41;;;;;;;28.35;16.05;;;;;;;3.97;55.67;99613.13;4332613;33;34277;-68
2022/03/04 02:47:09;;;;;;;26.60;15.18;;;;;;;3.79;56.19;99624.53;4332868;33;34800;-65
2022/03/04 02:49:37;;;;;;;29.40;16.35;;;;;;;3.96;55.23;99614.19;4333099;33;34140;-66
2022/03/04 02:52:04;;;;;;;29.63;15.98;;;;;;;3.80;55.77;99612.78;4333115;33;34013;-69
2022/03/04 02:54:32;;;;;;;4.30;2.30;;;;;;;3.86;55.52;99622.66;4319518;33;34416;-66
2022/03/04 02:57:00;;;;;;;29.17;15.80;;;;;;;3.69;55.66;99621.44;4332817;33;34557;-68
2022/03/04 02:59:28;;;;;;;28.15;15.63;;;;;;;3.34;56.48;99616.25;4333185;33;33647;-68
2022/03/04 03:01:55;;;;;;;31.23;16.05;;;;;;;3.66;55.31;99619.16;4332913;33;33997;-67
2022/03/04 03:04:23;;;;;;;29.90;16.65;;;;;;;3.35;56.04;99622.44;4332638;33;33710;-66
2022/03/04 03:06:52;;;;;;;27.90;15.52;;;;;;;3.75;54.85;99623.28;4332699;33;33612;-66
2022/03/04 03:09:19;;;;;;;1.60;1.05;;;;;;;3.56;55.59;99624.12;4332775;33;33346;-69
2022/03/04 03:11:47;;;;;;;30.27;15.55;;;;;;;4.02;54.03;99626.78;4333044;33;33756;-68
2022/03/04 03:14:14;;;;;;;1.65;1.02;;;;;;;3.68;55.06;99627.84;4331916;33;35459;-66
2022/03/04 03:16:41;;;;;;;33.33;17.42;;;;;;;4.31;53.44;99628.16;4332396;33;33399;-69
2022/03/04 03:19:09;;;;;;;29.48;16.15;;;;;;;3.96;53.93;99629.47;4332794;33;33529;-68
2022/03/04 03:21:37;;;;;;;35.13;17.35;;;;;;;4.22;53.20;99628.59;4333110;33;33627;-67
2022/03/04 03:24:05;;;;;;;26.92;14.70;;;;;;;3.61;54.64;99629.69;4332819;33;35046;-70
2022/03/04 03:26:32;;;;;;;25.67;14.75;;;;;;;4.08;53.67;99631.31;4332200;33;34003;-69
2022/03/04 03:29:00;;;;;;;27.13;14.93;;;;;;;3.81;53.98;99633.19;4332695;33;33465;-69
2022/03/04 03:31:27;;;;;;;25.95;14.80;;;;;;;3.88;53.62;99633.19;4332938;33;33944;-68
2022/03/04 03:33:55;;;;;;;28.60;15.25;;;;;;;3.72;54.06;99631.75;4332642;33;35011;-67
2022/03/04 03:36:23;;;;;;;28.58;15.32;;;;;;;3.64;54.03;99643.50;4331986;33;34751;-66
2022/03/04 03:38:50;;;;;;;27.20;15.00;;;;;;;3.73;53.85;99641.44;4332785;33;34278;-67
2022/03/04 03:41:17;;;;;;;24.83;14.70;;;;;;;3.04;55.47;99645.28;4332689;33;34058;-65
2022/03/04 03:43:45;;;;;;;23.83;14.52;;;;;;;3.31;54.59;99638.13;4332847;33;34765;-67
2022/03/04 03:46:12;;;;;;;25.83;14.57;;;;;;;3.31;54.41;99640.81;4330952;33;33933;-67
2022/03/04 03:48:40;;;;;;;25.45;15.05;;;;;;;3.37;54.24;99641.84;4332826;33;33410;-66
2022/03/04 03:51:09;;;;;;;26.02;14.15;;;;;;;3.98;52.55;99638.97;4332955;33;34681;-68
2022/03/04 03:53:37;;;;;;;26.05;15.27;;;;;;;3.74;53.49;99647.62;4332799;33;34976;-65
2022/03/04 03:56:05;;;;;;;25.95;14.85;;;;;;;3.05;55.78;99638.91;4331750;33;33740;-67
2022/03/04 03:58:32;;;;;;;28.48;15.48;;;;;;;3.11;55.48;99642.63;4332699;33;34266;-66
2022/03/04 04:01:00;;;;;;;31.10;17.02;;;;;;;3.24;55.41;99639.97;4332480;33;33964;-66
2022/03/04 04:03:28;;;;;;;30.20;17.02;;;;;;;2.57;57.85;99639.78;4332576;33;34298;-66
2022/03/04 04:05:55;;;;;;;26.40;15.20;;;;;;;2.96;56.29;99649.00;4331895;33;34031;-66
2022/03/04 04:08:23;;;;;;;26.33;15.35;;;;;;;2.95;56.45;99639.28;4332689;33;33400;-65
2022/03/04 04:10:51;;;;;;;27.67;15.65;;;;;;;2.99;56.40;99639.72;4320981;33;34032;-65
2022/03/04 04:13:18;;;;;;;29.37;16.37;;;;;;;3.32;55.89;99638.94;4317691;33;34162;-68
2022/03/04 04:15:45;;;;;;;27.62;15.43;;;;;;;2.49;58.48;99639.12;4316959;33;34868;-66
2022/03/04 04:18:13;;;;;;;33.75;16.83;;;;;;;2.81;57.49;99640.28;4317780;33;33332;-64
2022/03/04 04:20:41;;;;;;;28.33;15.57;;;;;;;2.61;57.81;99642.87;4317692;33;33992;-64
2022/03/04 04:23:08;;;;;;;26.27;15.63;;;;;;;2.93;57.38;99638.66;4317562;33;34243;-67
2022/03/04 04:25:36;;;;;;;28.20;15.75;;;;;;;3.13;57.00;99648.59;4316960;33;34727;-68
2022/03/04 04:28:03;;;;;;;30.95;16.42;;;;;;;2.76;57.96;99650.75;4317964;33;33109;-69
2022/03/04 04:30:31;;;;;;;30.70;16.85;;;;;;;2.69;58.17;99650.72;4317586;33;34896;-72
2022/03/04 04:32:58;;;;;;;27.65;15.20;;;;;;;2.88;57.91;99649.97;4317589;33;34181;-65
2022/03/04 04:35:26;;;;;;;29.70;16.60;;;;;;;3.09;57.23;99653.56;4316844;33;34866;-65
2022/03/04 04:37:53;;;;;;;0.82;0.82;;;;;;;2.42;59.05;99647.94;4317623;33;33529;-64
2022/03/04 04:40:21;;;;;;;29.25;16.55;;;;;;;3.06;57.43;99651.28;4317670;33;33658;-67
2022/03/04 04:42:49;;;;;;;28.52;15.30;;;;;;;2.93;57.47;99652.06;4317598;33;34222;-65
2022/03/04 04:45:16;;;;;;;29.65;15.73;;;;;;;2.97;57.21;99664.03;4316600;33;34769;-65
2022/03/04 04:47:44;;;;;;;1.33;1.23;;;;;;;2.86;57.65;99654.72;4317414;33;33415;-65
2022/03/04 04:50:11;;;;;;;1.55;1.15;;;;;;;3.24;56.37;99658.72;4317748;33;33951;-67
2022/03/04 04:52:38;;;;;;;27.55;16.27;;;;;;;3.59;55.32;99672.00;4317324;33;35700;-67
2022/03/04 04:55:06;;;;;;;28.08;15.70;;;;;;;3.33;55.80;99673.63;4316977;33;33835;-66
2022/03/04 04:57:34;;;;;;;26.73;16.17;;;;;;;2.94;57.34;99679.66;4317394;33;34551;-68
2022/03/04 05:00:02;;;;;;;29.23;15.90;;;;;;;3.05;56.95;99682.63;4317284;33;34510;-65
2022/03/04 05:02:29;;;;;;;25.70;16.17;;;;;;;3.17;56.24;99688.19;4317677;33;34233;-66
2022/03/04 05:04:57;;;;;;;32.35;17.00;;;;;;;3.29;55.85;99694.63;4316765;33;33768;-66
2022/03/04 05:07:24;;;;;;;29.80;16.52;;;;;;;3.19;56.07;99691.50;4315316;33;33179;-65
2022/03/04 05:09:52;;;;;;;32.55;17.25;;;;;;;3.02;56.42;99688.37;4328185;33;35004;-65
2022/03/04 05:12:19;;;;;;;1.50;1.40;;;;;;;2.99;56.74;99698.69;4331189;33;34324;-65
2022/03/04 05:14:47;;;;;;;32.55;18.55;;;;;;;3.42;55.76;99703.75;4317479;33;34128;-66
2022/03/04 05:17:14;;;;;;;30.08;15.80;;;;;;;3.24;56.16;99705.16;4331388;33;33265;-66
2022/03/04 05:19:42;;;;;;;32.40;18.00;;;;;;;3.09;56.82;99701.81;4330752;33;33378;-68
2022/03/04 05:22:09;;;;;;;34.28;17.80;;;;;;;2.89;57.53;99707.06;4331398;33;35008;-66
2022/03/04 05:24:37;;;;;;;30.08;17.15;;;;;;;3.11;57.32;99712.31;4330557;33;34113;-66
2022/03/04 05:27:04;;;;;;;33.40;17.12;;;;;;;2.60;58.53;99716.22;4331545;33;33784;-65
2022/03/04 05:29:31;;;;;;;30.08;16.58;;;;;;;2.73;58.09;99708.25;4331262;33;33711;-66
2022/03/04 05:31:59;;;;;;;37.47;18.73;;;;;;;2.94;57.45;99717.19;4331497;33;35084;-66
2022/03/04 05:34:27;;;;;;;33.47;18.00;;;;;;;3.26;56.49;99724.56;4331993;33;35461;-66
2022/03/04 05:36:54;;;;;;;29.40;17.42;;;;;;;3.27;56.81;99728.88;4332925;33;34151;-65
2022/03/04 05:39:22;;;;;;;36.22;19.87;;;;;;;3.57;56.33;99723.16;4333050;33;33720;-66
2022/03/04 05:41:49;;;;;;;33.60;19.10;;;;;;;3.20;57.74;99728.03;4333033;33;34202;-65
2022/03/04 05:44:17;;;;;;;33.95;19.20;;;;;;;3.24;57.27;99734.66;4332707;33;33977;-66
2022/03/04 05:46:45;;;;;;;33.17;17.15;;;;;;;2.81;58.14;99740.25;4324800;33;33255;-66
2022/03/04 05:49:12;;;;;;;1.20;1.10;;;;;;;3.03;57.51;99737.47;4317939;33;34045;-66
2022/03/04 05:51:40;;;;;;;32.17;18.52;;;;;;;3.87;55.48;99747.78;4318228;33;33834;-66
2022/03/04 05:54:07;;;;;;;36.42;18.90;;;;;;;3.51;56.59;99747.31;4317808;33;34076;-65
2022/03/04 05:56:35;;;;;;;31.98;18.00;;;;;;;3.33;56.94;99748.69;4323609;33;33595;-65
2022/03/04 05:59:02;;;;;;;30.02;17.85;;;;;;;3.36;56.81;99755.50;4317935;33;33786;-66
2022/03/04 06:01:30;;;;;;;35.42;17.95;;;;;;;3.35;56.89;99754.69;4326695;33;33793;-64
2022/03/04 06:03:58;;;;;;;2.60;1.23;;;;;;;3.39;56.72;99761.31;4329356;33;34707;-65
2022/03/04 06:06:26;;;;;;;30.65;18.50;;;;;;;3.60;57.08;99754.12;4326906;33;33253;-65
2022/03/04 06:08:54;;;;;;;32.15;18.55;;;;;;;3.30;57.64;99754.44;4322342;33;33617;-66
2022/03/04 06:11:22;;;;;;;32.63;18.60;;;;;;;3.35;58.01;99757.37;4332564;33;34364;-69
2022/03/04 06:13:49;;;;;;;31.35;18.45;;;;;;;2.87;58.94;99760.88;4332678;33;33885;-67
2022/03/04 06:16:16;;;;;;;29.08;16.75;;;;;;;3.19;57.81;99765.75;4332068;33;33816;-66
2022/03/04 06:18:44;;;;;;;29.50;17.35;;;;;;;3.42;57.54;99765.44;4330137;33;34840;-66
2022/03/04 06:21:12;;;;;;;2.80;2.58;;;;;;;3.74;57.12;99771.06;4328682;33;34750;-66
2022/03/04 06:23:39;;;;;;;38.00;20.45;;;;;;;3.96;56.86;99769.06;4327985;33;34025;-67
2022/03/04 06:26:08;;;;;;;2.15;1.33;;;;;;;3.94;56.80;99779.16;4329181;33;33669;-66
2022/03/04 06:28:35;;;;;;;35.83;19.20;;;;;;;4.52;54.78;99785.56;4322838;33;33947;-67
2022/03/04 06:31:03;;;;;;;31.30;16.83;;;;;;;3.84;56.16;99785.75;4328122;33;34070;-67
2022/03/04 06:33:32;;;;;;;34.13;19.08;;;;;;;3.90;56.10;99787.63;4326020;33;33823;-69
2022/03/04 06:36:06;;;;;;;2.35;1.77;;;;;;;3.93;56.17;99789.09;4325787;33;33618;-65
2022/03/04 06:44:46;;;;;;;35.30;19.52;;;;;;;3.87;56.14;99797.94;4553153;27;20095;-63
2022/03/04 06:47:14;;;;;;;50.33;26.48;;;;;;;3.36;57.56;99806.47;4346909;33;34320;-68
2022/03/04 06:49:41;;;;;;;68.10;30.30;;;;;;;3.70;57.49;99797.50;4336704;33;34003;-62
2022/03/04 06:52:09;;;;;;;60.03;28.50;;;;;;;3.90;56.71;99794.84;4343860;33;34076;-67
2022/03/04 06:54:39;;;;;;;67.45;31.12;;;;;;;3.33;58.61;99799.66;4332805;33;34023;-63
2022/03/04 06:57:06;;;;;;;58.58;29.45;;;;;;;4.00;56.19;99795.28;4346515;33;33343;-64
2022/03/04 06:59:34;;;;;;;53.78;28.02;;;;;;;4.42;54.98;99800.47;4338004;33;34722;-63
2022/03/04 07:02:03;;;;;;;48.83;25.95;;;;;;;3.89;57.03;99799.41;4340701;33;34332;-64
2022/03/04 07:04:31;;;;;;;43.67;23.52;;;;;;;4.25;56.16;99810.78;4342373;32;34151;-66
2022/03/04 07:06:58;;;;;;;40.25;23.87;;;;;;;4.29;55.90;99806.66;4342490;32;33748;-64
2022/03/04 07:09:26;;;;;;;39.15;22.02;;;;;;;4.39;56.02;99809.75;4341972;33;33964;-65
2022/03/04 07:11:54;;;;;;;38.45;22.95;;;;;;;4.82;55.33;99811.19;4346002;32;34319;-67
2022/03/04 07:14:21;;;;;;;38.53;21.75;;;;;;;5.04;54.69;99814.44;4338129;33;33752;-64
2022/03/04 07:16:49;;;;;;;39.63;22.83;;;;;;;4.97;55.04;99821.66;4336588;33;33164;-64
2022/03/04 07:19:16;;;;;;;38.30;22.20;;;;;;;5.02;54.58;99820.00;4341779;33;33575;-68
2022/03/04 07:21:44;;;;;;;38.90;21.40;;;;;;;5.07;53.10;99819.38;4335108;33;34947;-65
2022/03/04 07:24:12;;;;;;;38.40;20.75;;;;;;;4.77;53.64;99821.72;4338581;33;34614;-65
2022/03/04 07:26:39;;;;;;;34.97;21.33;;;;;;;5.13;53.03;99821.22;4338834;33;33551;-68
2022/03/04 07:29:06;;;;;;;33.88;19.92;;;;;;;5.10;53.37;99821.66;4335168;33;33555;-66
2022/03/04 07:31:34;;;;;;;35.55;20.65;;;;;;;5.57;52.53;99827.66;4340767;33;33803;-64
2022/03/04 07:34:01;;;;;;;37.70;20.40;;;;;;;5.51;52.15;99836.62;4336113;33;34865;-67
2022/03/04 07:36:29;;;;;;;34.13;19.33;;;;;;;5.82;50.62;99835.03;4333830;33;33591;-63
2022/03/04 07:38:57;;;;;;;31.85;18.58;;;;;;;5.15;51.88;99829.91;4333533;33;34318;-69
2022/03/04 07:41:25;;;;;;;31.77;18.87;;;;;;;4.92;52.59;99838.44;4336549;33;34259;-64
2022/03/04 07:43:52;;;;;;;34.67;18.83;;;;;;;5.26;51.54;99836.50;4334660;33;34661;-67
2022/03/04 07:46:22;;;;;;;33.90;18.48;;;;;;;5.20;50.79;99831.97;4335895;33;33385;-64
2022/03/04 07:48:49;;;;;;;32.55;17.90;;;;;;;4.78;52.33;99845.69;4338266;33;34381;-63
2022/03/04 07:51:17;;;;;;;33.70;17.23;;;;;;;4.66;52.76;99841.97;4336719;33;34274;-63
2022/03/04 07:53:44;;;;;;;34.85;18.12;;;;;;;4.22;54.02;99844.25;4333798;33;34639;-64
2022/03/04 07:56:12;;;;;;;32.38;17.77;;;;;;;4.17;54.41;99844.06;4344887;33;32853;-63
2022/03/04 07:58:39;;;;;;;33.55;18.45;;;;;;;4.32;54.10;99843.88;4347162;33;34009;-64
2022/03/04 08:01:08;;;;;;;32.40;18.02;;;;;;;4.14;54.47;99851.69;4346702;33;34759;-63
2022/03/04 08:03:48;;;;;;;29.42;17.98;;;;;;;3.92;56.51;99859.06;4346421;32;34034;-64
2022/03/04 08:06:16;;;;;;;33.88;17.90;;;;;;;3.99;57.05;99865.28;4345660;33;33701;-65
2022/03/04 08:08:43;;;;;;;31.33;18.12;;;;;;;3.69;57.99;99871.81;4345748;32;33475;-64
2022/03/04 08:11:11;;;;;;;36.42;18.67;;;;;;;3.75;58.69;99869.34;4346986;33;34396;-64
2022/03/04 08:13:38;;;;;;;33.03;18.70;;;;;;;3.43;60.46;99872.50;4346818;33;33806;-64
2022/03/04 08:16:05;;;;;;;34.47;19.27;;;;;;;3.31;61.36;99868.75;4345689;33;33645;-65
2022/03/04 08:18:33;;;;;;;31.77;19.87;;;;;;;3.05;62.77;99875.59;4346719;33;33973;-68
2022/03/04 08:21:03;;;;;;;38.88;20.65;;;;;;;3.35;62.30;99872.69;4347412;33;34242;-65
2022/03/04 08:23:30;;;;;;;35.15;19.00;;;;;;;3.46;62.18;99879.34;4346789;33;34703;-64
2022/03/04 08:26:03;;;;;;;34.85;19.45;;;;;;;3.05;63.46;99874.78;4345051;33;33662;-65
2022/03/04 08:28:33;;;;;;;33.78;19.30;;;;;;;3.26;62.80;99884.59;4343011;33;33929;-64
2022/03/04 08:31:10;;;;;;;34.40;17.90;;;;;;;3.30;61.37;99877.81;4337561;33;34162;-65
2022/03/04 08:33:40;;;;;;;35.00;19.95;;;;;;;3.74;60.13;99883.78;4334856;33;34007;-67
2022/03/04 08:36:09;;;;;;;36.58;19.42;;;;;;;3.59;60.42;99883.94;4330137;33;34466;-67
2022/03/04 08:38:37;;;;;;;37.65;19.67;;;;;;;3.73;60.58;99892.84;4344251;33;83634;-68
2022/03/04 08:41:05;;;;;;;37.00;20.20;;;;;;;3.51;61.22;99889.47;4347213;33;34528;-63
2022/03/04 08:43:34;;;;;;;9.73;5.47;;;;;;;3.52;61.58;99883.06;4334893;33;34950;-63
2022/03/04 08:46:03;;;;;;;35.75;20.02;;;;;;;3.08;63.61;99893.16;4331832;33;33699;-64
2022/03/04 08:48:31;;;;;;;36.28;19.75;;;;;;;3.17;63.60;99888.44;4331377;33;33802;-63
2022/03/04 08:50:59;;;;;;;38.15;20.67;;;;;;;3.00;63.99;99886.09;4333289;33;34879;-62
2022/03/04 08:53:27;;;;;;;37.33;19.77;;;;;;;3.44;63.36;99894.81;4332613;33;34123;-64
2022/03/04 08:55:55;;;;;;;36.17;20.02;;;;;;;3.35;63.12;99901.34;4333131;33;34106;-64
2022/03/04 08:58:24;;;;;;;32.38;18.17;;;;;;;3.40;63.72;99904.28;4333345;33;34037;-67
2022/03/04 09:00:51;;;;;;;32.67;18.35;;;;;;;3.37;63.20;99901.97;4333041;33;35136;-65
2022/03/04 09:03:19;;;;;;;32.58;19.23;;;;;;;3.50;63.34;99902.06;4333134;33;34776;-65
2022/03/04 09:05:47;;;;;;;30.92;17.80;;;;;;;3.79;62.67;99894.75;4333157;33;33319;-65
2022/03/04 09:08:15;;;;;;;31.15;17.67;;;;;;;4.75;58.78;99899.84;4332872;33;34025;-66
2022/03/04 09:10:42;;;;;;;37.60;19.20;;;;;;;5.01;57.39;99895.50;4333211;33;33854;-65
2022/03/04 09:13:10;;;;;;;35.17;18.52;;;;;;;5.50;57.05;99897.66;4333157;33;34089;-69
2022/03/04 09:15:37;;;;;;;32.33;18.25;;;;;;;5.74;55.06;99895.31;4332360;33;33516;-66
2022/03/04 09:18:04;;;;;;;32.78;17.67;;;;;;;6.44;52.96;99898.06;4332905;33;34092;-66
2022/03/04 09:20:34;;;;;;;29.15;17.45;;;;;;;6.25;53.41;99899.84;4332618;33;35070;-67
2022/03/04 09:23:02;;;;;;;29.87;16.73;;;;;;;6.18;53.42;99901.78;4332908;33;34643;-68
2022/03/04 09:25:29;;;;;;;28.10;15.88;;;;;;;6.22;52.67;99892.22;4333161;33;33356;-66
2022/03/04 09:27:57;;;;;;;28.48;16.98;;;;;;;6.88;51.75;99896.28;4332901;33;33964;-68
2022/03/04 09:30:26;;;;;;;30.70;16.95;;;;;;;6.10;51.27;99902.03;4331116;33;35207;-66
2022/03/04 09:32:53;;;;;;;30.20;17.85;;;;;;;6.36;52.59;99899.16;4332981;33;33894;-64
2022/03/04 09:35:21;;;;;;;30.73;17.58;;;;;;;7.26;50.54;99902.59;4332944;33;33815;-67
2022/03/04 09:37:49;;;;;;;29.30;16.35;;;;;;;7.23;50.80;99901.13;4332960;33;34055;-67
2022/03/04 09:40:17;;;;;;;30.48;17.17;;;;;;;6.22;51.26;99913.78;4332675;33;34744;-65
2022/03/04 09:42:45;;;;;;;24.70;15.50;;;;;;;7.16;50.02;99914.69;4333120;33;34749;-66
2022/03/04 09:45:12;;;;;;;26.35;15.90;;;;;;;7.86;47.25;99910.81;4332628;33;34218;-65
2022/03/04 09:47:40;;;;;;;24.63;14.80;;;;;;;6.81;49.54;99917.09;4332744;33;34119;-69
2022/03/04 09:50:09;;;;;;;24.73;15.15;;;;;;;7.05;49.12;99915.41;4319658;33;34207;-71
2022/03/04 09:52:39;;;;;;;31.27;15.32;;;;;;;8.00;47.18;99909.59;4332599;33;33805;-67
2022/03/04 09:55:07;;;;;;;30.83;15.85;;;;;;;7.81;47.36;99916.87;4331316;32;33436;-65
2022/03/04 09:57:35;;;;;;;29.15;16.27;;;;;;;7.79;47.41;99912.78;4333625;32;34871;-66
2022/03/04 10:00:04;;;;;;;27.60;16.10;;;;;;;8.13;47.25;99908.59;4347083;33;34240;-68
2022/03/04 10:02:38;;;;;;;23.85;14.55;;;;;;;8.92;44.46;99916.59;4346927;33;34002;-66
2022/03/04 10:05:08;;;;;;;25.73;15.63;;;;;;;6.73;50.08;99906.56;4347092;33;33578;-66
2022/03/04 11:48:48;;;;;;;32.13;18.45;;;;;;;7.83;49.93;99881.56;4939445;27;20064;-68
2022/03/04 11:51:20;;;;;;;33.55;17.87;;;;;;;8.63;47.25;99885.84;4337101;33;35238;-70
2022/03/04 11:54:22;;;;;;;29.17;18.67;;;;;;;8.34;48.89;99876.72;4349389;33;35155;-71
2022/03/04 11:56:51;;;;;;;34.83;18.25;;;;;;;8.62;48.28;99878.81;4336939;33;34047;-69
2022/03/04 11:59:21;;;;;;;28.92;17.48;;;;;;;7.75;47.88;99881.84;4337139;33;34776;-69
2022/03/04 12:01:49;;;;;;;31.55;18.20;;;;;;;8.50;46.07;99878.75;4349396;33;35400;-69
2022/03/04 12:04:18;;;;;;;32.70;18.55;;;;;;;9.13;46.04;99880.00;4349315;33;35009;-70
2022/03/04 12:10:09;;;;;;;30.37;17.90;;;;;;;9.11;45.03;99884.00;4323660;33;20095;-69
2022/03/04 12:12:38;;;;;;;30.83;17.77;;;;;;;8.46;47.86;99885.69;4326630;33;33515;-69
2022/03/04 12:15:15;;;;;;;32.20;19.30;;;;;;;8.48;47.87;99880.06;4333405;33;35079;-70
2022/03/04 12:18:05;;;;;;;36.95;19.27;;;;;;;7.07;50.27;99885.53;4330688;33;34721;-71
2022/03/04 12:20:41;;;;;;;31.80;19.40;;;;;;;8.17;48.38;99887.34;4320910;33;33581;-70
2022/03/04 12:23:15;;;;;;;32.92;18.85;;;;;;;7.17;50.21;99886.66;4332863;33;33904;-71
2022/03/04 12:25:51;;;;;;;32.75;19.25;;;;;;;7.03;50.95;99882.44;4332660;33;34184;-68
2022/03/04 12:28:24;;;;;;;33.97;18.60;;;;;;;6.81;50.31;99884.72;4333403;33;34962;-68
2022/03/04 12:31:01;;;;;;;29.67;18.05;;;;;;;6.97;50.50;99889.53;4333141;33;33822;-67
2022/03/04 12:33:30;;;;;;;33.15;17.83;;;;;;;6.74;51.64;99886.66;4333327;33;34665;-68
2022/03/04 12:35:59;;;;;;;37.08;20.02;;;;;;;6.75;50.65;99889.13;4333339;33;34064;-67
2022/03/04 12:38:27;;;;;;;35.05;20.00;;;;;;;6.08;52.99;99893.31;4333533;33;33966;-67
2022/03/04 12:40:56;;;;;;;35.28;19.37;;;;;;;6.67;51.27;99892.06;4331697;33;33647;-70
2022/03/04 12:43:26;;;;;;;35.13;20.67;;;;;;;6.50;52.84;99888.28;4317162;33;33932;-71
2022/03/04 12:45:55;;;;;;;34.55;19.67;;;;;;;5.94;53.76;99900.63;4332174;33;34210;-69
2022/03/04 12:48:23;;;;;;;34.38;20.73;;;;;;;6.37;53.10;99887.34;4330907;33;34036;-71
2022/03/04 12:50:50;;;;;;;37.10;20.75;;;;;;;6.26;54.77;99895.28;4331525;33;33191;-70
2022/03/04 12:53:20;;;;;;;36.72;20.67;;;;;;;6.13;54.36;99898.88;4331747;33;33806;-72
2022/03/04 12:55:51;;;;;;;36.20;21.33;;;;;;;6.36;53.38;99892.94;4332044;33;34958;-70
2022/03/04 12:58:45;;;;;;;39.80;21.87;;;;;;;6.34;54.49;99895.03;4318549;33;34630;-70
2022/03/04 13:01:15;;;;;;;42.03;23.23;;;;;;;5.99;55.82;99898.12;4314205;33;34270;-70
2022/03/04 13:03:51;;;;;;;39.40;23.12;;;;;;;5.99;58.13;99902.72;4303917;33;33968;-70
2022/03/04 13:06:19;;;;;;;;;;;;;;;5.24;61.85;99905.81;4304525;33;34921;-70
2022/03/04 13:08:52;;;;;;;40.92;21.83;;;;;;;4.85;64.03;99902.16;4303987;33;34225;-71
2022/03/04 13:11:20;;;;;;;44.75;23.55;;;;;;;4.43;64.59;99896.16;4316554;33;33509;-64
2022/03/04 13:14:04;;;;;;;43.38;23.58;;;;;;;5.61;62.52;99896.19;4316401;33;33958;-66
2022/03/04 13:16:53;;;;;;;41.33;23.90;;;;;;;6.50;59.50;99893.66;4316835;33;34279;-66
2022/03/04 13:19:26;;;;;;;44.20;23.98;;;;;;;6.46;60.75;99893.28;4316436;33;33973;-65
2022/03/04 13:22:02;;;;;;;53.53;28.65;;;;;;;6.41;60.50;99889.59;4316768;33;34632;-64
2022/03/04 13:24:36;;;;;;;45.95;25.88;;;;;;;6.70;59.49;99886.25;4316817;33;33935;-67